Saint Louis, Missouri
Traffic Map
Current Weather Conditions
Saint Louis, Missouri
Clear
Clear
17°
Feels Like: 17°
Wind Chill: 17° Ceiling: Unl
Heat Index: 17° Visibility: 10mi
Dew Point: Wind: 6mph
Humidity: 52% Direction: 160° (SSE)
Pressure: 30.13in Gusts: 0mph
Raw Report DataKCPS 231953Z 16005KT 10SM CLR 17/07 A3013 RMK AO2 SLP202 T01720072
Traffic Incident Summary
Active as of:
Severity:
Category:
InformationThere was an issue retrieving the traffic information for this location. Please try a different location or try again shortly.
Advertisements
Track Severe Weather on mobile